sensor_id;sensor_type;location;lat;lon;timestamp;P1;durP1;ratioP1;P2;durP2;ratioP2
32321;SDS011;61553;48.994;8.940;2022-10-31T00:02:22;16.15;;;8.55;;
32321;SDS011;61553;48.994;8.940;2022-10-31T00:04:48;21.80;;;8.82;;
32321;SDS011;61553;48.994;8.940;2022-10-31T00:07:13;22.20;;;10.13;;
32321;SDS011;61553;48.994;8.940;2022-10-31T00:09:39;21.67;;;9.63;;
32321;SDS011;61553;48.994;8.940;2022-10-31T00:12:04;22.77;;;9.65;;
32321;SDS011;61553;48.994;8.940;2022-10-31T00:14:30;19.15;;;9.25;;
32321;SDS011;61553;48.994;8.940;2022-10-31T00:16:56;25.70;;;9.55;;
32321;SDS011;61553;48.994;8.940;2022-10-31T00:19:21;15.82;;;8.95;;
32321;SDS011;61553;48.994;8.940;2022-10-31T00:21:47;20.30;;;9.27;;
32321;SDS011;61553;48.994;8.940;2022-10-31T00:24:12;16.52;;;8.30;;
32321;SDS011;61553;48.994;8.940;2022-10-31T00:26:38;18.23;;;8.45;;
32321;SDS011;61553;48.994;8.940;2022-10-31T00:29:04;18.80;;;8.68;;
32321;SDS011;61553;48.994;8.940;2022-10-31T00:31:29;15.30;;;8.10;;
32321;SDS011;61553;48.994;8.940;2022-10-31T00:33:55;16.75;;;8.13;;
32321;SDS011;61553;48.994;8.940;2022-10-31T00:36:22;15.48;;;7.22;;
32321;SDS011;61553;48.994;8.940;2022-10-31T00:38:47;15.95;;;7.95;;
32321;SDS011;61553;48.994;8.940;2022-10-31T00:41:14;17.52;;;8.43;;
32321;SDS011;61553;48.994;8.940;2022-10-31T00:43:41;18.08;;;9.00;;
32321;SDS011;61553;48.994;8.940;2022-10-31T00:46:08;15.73;;;8.60;;
32321;SDS011;61553;48.994;8.940;2022-10-31T00:48:34;21.08;;;8.52;;
32321;SDS011;61553;48.994;8.940;2022-10-31T00:51:00;24.73;;;10.38;;
32321;SDS011;61553;48.994;8.940;2022-10-31T00:53:25;26.77;;;10.68;;
32321;SDS011;61553;48.994;8.940;2022-10-31T00:55:51;26.25;;;11.27;;
32321;SDS011;61553;48.994;8.940;2022-10-31T00:58:17;27.00;;;11.15;;
32321;SDS011;61553;48.994;8.940;2022-10-31T01:00:42;23.58;;;10.48;;
32321;SDS011;61553;48.994;8.940;2022-10-31T01:03:08;25.42;;;10.65;;
32321;SDS011;61553;48.994;8.940;2022-10-31T01:05:34;20.33;;;9.50;;
32321;SDS011;61553;48.994;8.940;2022-10-31T01:08:00;20.70;;;10.52;;
32321;SDS011;61553;48.994;8.940;2022-10-31T01:10:25;22.20;;;10.63;;
32321;SDS011;61553;48.994;8.940;2022-10-31T01:12:51;28.70;;;10.50;;
32321;SDS011;61553;48.994;8.940;2022-10-31T01:15:18;21.50;;;10.55;;
32321;SDS011;61553;48.994;8.940;2022-10-31T01:17:45;15.18;;;8.82;;
32321;SDS011;61553;48.994;8.940;2022-10-31T01:20:12;21.90;;;10.23;;
32321;SDS011;61553;48.994;8.940;2022-10-31T01:22:39;25.30;;;10.35;;
32321;SDS011;61553;48.994;8.940;2022-10-31T01:25:04;35.63;;;11.88;;
32321;SDS011;61553;48.994;8.940;2022-10-31T01:27:31;34.92;;;10.30;;
32321;SDS011;61553;48.994;8.940;2022-10-31T01:29:57;16.17;;;8.65;;
32321;SDS011;61553;48.994;8.940;2022-10-31T01:32:23;24.00;;;10.05;;
32321;SDS011;61553;48.994;8.940;2022-10-31T01:34:48;38.33;;;10.80;;
32321;SDS011;61553;48.994;8.940;2022-10-31T01:37:14;16.55;;;8.35;;
32321;SDS011;61553;48.994;8.940;2022-10-31T01:39:40;22.75;;;10.27;;
32321;SDS011;61553;48.994;8.940;2022-10-31T01:42:05;20.33;;;9.07;;
32321;SDS011;61553;48.994;8.940;2022-10-31T01:47:01;17.98;;;8.95;;
32321;SDS011;61553;48.994;8.940;2022-10-31T01:54:30;44.35;;;12.60;;
32321;SDS011;61553;48.994;8.940;2022-10-31T01:57:00;20.38;;;9.65;;
32321;SDS011;61553;48.994;8.940;2022-10-31T01:59:29;14.23;;;8.23;;
32321;SDS011;61553;48.994;8.940;2022-10-31T02:01:58;15.48;;;7.65;;
32321;SDS011;61553;48.994;8.940;2022-10-31T02:04:24;22.85;;;8.93;;
32321;SDS011;61553;48.994;8.940;2022-10-31T02:06:53;16.45;;;8.18;;
32321;SDS011;61553;48.994;8.940;2022-10-31T02:09:32;14.95;;;7.57;;
32321;SDS011;61553;48.994;8.940;2022-10-31T02:12:01;20.33;;;8.75;;
32321;SDS011;61553;48.994;8.940;2022-10-31T02:14:27;14.10;;;7.43;;
32321;SDS011;61553;48.994;8.940;2022-10-31T02:16:55;11.60;;;6.90;;
32321;SDS011;61553;48.994;8.940;2022-10-31T02:19:34;18.33;;;8.13;;
32321;SDS011;61553;48.994;8.940;2022-10-31T02:30:23;11.32;;;6.85;;
32321;SDS011;61553;48.994;8.940;2022-10-31T02:33:03;12.23;;;7.68;;
32321;SDS011;61553;48.994;8.940;2022-10-31T02:35:38;19.65;;;8.63;;
32321;SDS011;61553;48.994;8.940;2022-10-31T02:38:34;16.08;;;7.72;;
32321;SDS011;61553;48.994;8.940;2022-10-31T02:41:10;18.27;;;8.50;;
32321;SDS011;61553;48.994;8.940;2022-10-31T02:43:54;14.27;;;7.43;;
32321;SDS011;61553;48.994;8.940;2022-10-31T02:49:26;16.55;;;7.25;;
32321;SDS011;61553;48.994;8.940;2022-10-31T02:52:17;21.42;;;8.93;;
32321;SDS011;61553;48.994;8.940;2022-10-31T02:54:50;14.32;;;7.90;;
32321;SDS011;61553;48.994;8.940;2022-10-31T02:57:17;17.27;;;8.05;;
32321;SDS011;61553;48.994;8.940;2022-10-31T02:59:55;13.45;;;7.93;;
32321;SDS011;61553;48.994;8.940;2022-10-31T03:08:30;11.75;;;5.95;;
32321;SDS011;61553;48.994;8.940;2022-10-31T03:11:06;17.33;;;6.97;;
32321;SDS011;61553;48.994;8.940;2022-10-31T03:18:48;9.98;;;5.68;;
32321;SDS011;61553;48.994;8.940;2022-10-31T03:21:20;12.68;;;6.03;;
32321;SDS011;61553;48.994;8.940;2022-10-31T03:23:50;9.70;;;5.40;;
32321;SDS011;61553;48.994;8.940;2022-10-31T03:26:18;11.38;;;5.68;;
32321;SDS011;61553;48.994;8.940;2022-10-31T03:28:48;10.52;;;5.90;;
32321;SDS011;61553;48.994;8.940;2022-10-31T03:31:19;14.18;;;5.10;;
32321;SDS011;61553;48.994;8.940;2022-10-31T03:33:49;13.23;;;5.60;;
32321;SDS011;61553;48.994;8.940;2022-10-31T03:36:16;10.07;;;5.47;;
32321;SDS011;61553;48.994;8.940;2022-10-31T03:38:44;13.55;;;5.68;;
32321;SDS011;61553;48.994;8.940;2022-10-31T03:41:13;13.23;;;5.93;;
32321;SDS011;61553;48.994;8.940;2022-10-31T03:43:43;11.43;;;5.53;;
32321;SDS011;61553;48.994;8.940;2022-10-31T03:46:17;14.77;;;6.00;;
32321;SDS011;61553;48.994;8.940;2022-10-31T03:48:43;9.63;;;5.32;;
32321;SDS011;61553;48.994;8.940;2022-10-31T03:51:16;18.73;;;6.70;;
32321;SDS011;61553;48.994;8.940;2022-10-31T03:56:37;12.05;;;5.55;;
32321;SDS011;61553;48.994;8.940;2022-10-31T03:59:09;12.40;;;5.68;;
32321;SDS011;61553;48.994;8.940;2022-10-31T04:01:43;11.50;;;6.10;;
32321;SDS011;61553;48.994;8.940;2022-10-31T04:04:14;10.93;;;5.97;;
32321;SDS011;61553;48.994;8.940;2022-10-31T04:06:40;13.93;;;6.05;;
32321;SDS011;61553;48.994;8.940;2022-10-31T04:09:09;14.50;;;6.40;;
32321;SDS011;61553;48.994;8.940;2022-10-31T04:11:40;15.93;;;6.22;;
32321;SDS011;61553;48.994;8.940;2022-10-31T04:14:10;12.30;;;6.75;;
32321;SDS011;61553;48.994;8.940;2022-10-31T04:16:38;18.65;;;6.80;;
32321;SDS011;61553;48.994;8.940;2022-10-31T04:19:08;14.05;;;6.90;;
32321;SDS011;61553;48.994;8.940;2022-10-31T04:21:33;19.67;;;8.23;;
32321;SDS011;61553;48.994;8.940;2022-10-31T04:23:59;17.70;;;7.50;;
32321;SDS011;61553;48.994;8.940;2022-10-31T04:26:25;17.92;;;8.02;;
32321;SDS011;61553;48.994;8.940;2022-10-31T04:28:50;18.08;;;7.25;;
32321;SDS011;61553;48.994;8.940;2022-10-31T04:31:16;14.95;;;7.05;;
32321;SDS011;61553;48.994;8.940;2022-10-31T04:33:42;10.98;;;6.38;;
32321;SDS011;61553;48.994;8.940;2022-10-31T04:36:08;15.10;;;8.20;;
32321;SDS011;61553;48.994;8.940;2022-10-31T04:38:34;13.18;;;7.32;;
32321;SDS011;61553;48.994;8.940;2022-10-31T04:41:00;18.15;;;8.15;;
32321;SDS011;61553;48.994;8.940;2022-10-31T04:43:25;23.52;;;9.85;;
32321;SDS011;61553;48.994;8.940;2022-10-31T04:45:51;20.92;;;8.77;;
32321;SDS011;61553;48.994;8.940;2022-10-31T04:48:16;18.52;;;8.75;;
32321;SDS011;61553;48.994;8.940;2022-10-31T04:50:42;17.85;;;8.38;;
32321;SDS011;61553;48.994;8.940;2022-10-31T04:53:08;25.15;;;9.88;;
32321;SDS011;61553;48.994;8.940;2022-10-31T04:55:34;15.32;;;8.27;;
32321;SDS011;61553;48.994;8.940;2022-10-31T04:58:01;15.45;;;7.97;;
32321;SDS011;61553;48.994;8.940;2022-10-31T05:00:26;22.38;;;10.55;;
32321;SDS011;61553;48.994;8.940;2022-10-31T05:02:56;20.20;;;9.77;;
32321;SDS011;61553;48.994;8.940;2022-10-31T05:05:23;12.68;;;7.30;;
32321;SDS011;61553;48.994;8.940;2022-10-31T05:07:51;23.85;;;9.85;;
32321;SDS011;61553;48.994;8.940;2022-10-31T05:10:18;15.10;;;8.60;;
32321;SDS011;61553;48.994;8.940;2022-10-31T05:12:46;22.23;;;9.35;;
32321;SDS011;61553;48.994;8.940;2022-10-31T05:15:13;17.02;;;8.90;;
32321;SDS011;61553;48.994;8.940;2022-10-31T05:17:39;22.50;;;9.27;;
32321;SDS011;61553;48.994;8.940;2022-10-31T05:20:05;20.27;;;7.93;;
32321;SDS011;61553;48.994;8.940;2022-10-31T05:22:31;18.25;;;10.02;;
32321;SDS011;61553;48.994;8.940;2022-10-31T05:24:57;21.25;;;8.77;;
32321;SDS011;61553;48.994;8.940;2022-10-31T05:27:23;16.23;;;7.72;;
32321;SDS011;61553;48.994;8.940;2022-10-31T05:29:49;15.60;;;8.15;;
32321;SDS011;61553;48.994;8.940;2022-10-31T05:32:14;12.93;;;6.65;;
32321;SDS011;61553;48.994;8.940;2022-10-31T05:34:40;17.10;;;7.85;;
32321;SDS011;61553;48.994;8.940;2022-10-31T05:37:05;11.40;;;6.35;;
32321;SDS011;61553;48.994;8.940;2022-10-31T05:39:31;12.35;;;6.00;;
32321;SDS011;61553;48.994;8.940;2022-10-31T05:41:57;9.45;;;5.50;;
32321;SDS011;61553;48.994;8.940;2022-10-31T05:44:22;10.98;;;5.90;;
32321;SDS011;61553;48.994;8.940;2022-10-31T05:46:48;11.25;;;6.18;;
32321;SDS011;61553;48.994;8.940;2022-10-31T05:49:13;10.48;;;5.55;;
32321;SDS011;61553;48.994;8.940;2022-10-31T05:51:39;12.55;;;5.70;;
32321;SDS011;61553;48.994;8.940;2022-10-31T05:54:05;13.05;;;5.80;;
32321;SDS011;61553;48.994;8.940;2022-10-31T05:56:30;12.65;;;6.75;;
32321;SDS011;61553;48.994;8.940;2022-10-31T05:58:56;12.02;;;6.00;;
32321;SDS011;61553;48.994;8.940;2022-10-31T06:01:22;15.52;;;6.53;;
32321;SDS011;61553;48.994;8.940;2022-10-31T06:03:47;11.80;;;5.50;;
32321;SDS011;61553;48.994;8.940;2022-10-31T06:06:13;15.27;;;6.13;;
32321;SDS011;61553;48.994;8.940;2022-10-31T06:08:39;15.02;;;6.82;;
32321;SDS011;61553;48.994;8.940;2022-10-31T06:11:05;14.23;;;7.03;;
32321;SDS011;61553;48.994;8.940;2022-10-31T06:13:31;17.70;;;7.28;;
32321;SDS011;61553;48.994;8.940;2022-10-31T06:15:57;15.68;;;7.45;;
32321;SDS011;61553;48.994;8.940;2022-10-31T06:18:22;15.90;;;7.07;;
32321;SDS011;61553;48.994;8.940;2022-10-31T06:20:48;17.42;;;6.85;;
32321;SDS011;61553;48.994;8.940;2022-10-31T06:23:13;13.63;;;7.20;;
32321;SDS011;61553;48.994;8.940;2022-10-31T06:25:39;22.75;;;8.18;;
32321;SDS011;61553;48.994;8.940;2022-10-31T06:28:05;13.50;;;6.88;;
32321;SDS011;61553;48.994;8.940;2022-10-31T06:30:30;34.22;;;9.13;;
32321;SDS011;61553;48.994;8.940;2022-10-31T06:33:03;26.55;;;8.57;;
32321;SDS011;61553;48.994;8.940;2022-10-31T06:35:29;15.43;;;8.30;;
32321;SDS011;61553;48.994;8.940;2022-10-31T06:37:56;17.55;;;7.72;;
32321;SDS011;61553;48.994;8.940;2022-10-31T06:40:21;29.35;;;9.07;;
32321;SDS011;61553;48.994;8.940;2022-10-31T06:42:47;13.05;;;7.90;;
32321;SDS011;61553;48.994;8.940;2022-10-31T06:45:21;14.77;;;6.97;;
32321;SDS011;61553;48.994;8.940;2022-10-31T06:47:51;14.07;;;7.30;;
32321;SDS011;61553;48.994;8.940;2022-10-31T06:50:17;37.75;;;15.13;;
32321;SDS011;61553;48.994;8.940;2022-10-31T06:52:49;46.35;;;25.27;;
32321;SDS011;61553;48.994;8.940;2022-10-31T06:55:16;72.63;;;37.50;;
32321;SDS011;61553;48.994;8.940;2022-10-31T06:57:41;34.83;;;18.15;;
32321;SDS011;61553;48.994;8.940;2022-10-31T07:00:07;25.70;;;11.80;;
32321;SDS011;61553;48.994;8.940;2022-10-31T07:02:33;21.33;;;9.32;;
32321;SDS011;61553;48.994;8.940;2022-10-31T07:04:59;21.30;;;8.25;;
32321;SDS011;61553;48.994;8.940;2022-10-31T07:07:26;20.13;;;10.00;;
32321;SDS011;61553;48.994;8.940;2022-10-31T07:09:51;21.65;;;10.90;;
32321;SDS011;61553;48.994;8.940;2022-10-31T07:12:17;23.60;;;11.52;;
32321;SDS011;61553;48.994;8.940;2022-10-31T07:14:42;13.98;;;9.57;;
32321;SDS011;61553;48.994;8.940;2022-10-31T07:17:08;18.88;;;10.55;;
32321;SDS011;61553;48.994;8.940;2022-10-31T07:19:34;20.08;;;9.25;;
32321;SDS011;61553;48.994;8.940;2022-10-31T07:21:59;12.65;;;8.30;;
32321;SDS011;61553;48.994;8.940;2022-10-31T07:24:25;17.40;;;10.00;;
32321;SDS011;61553;48.994;8.940;2022-10-31T07:26:50;22.77;;;11.52;;
32321;SDS011;61553;48.994;8.940;2022-10-31T07:29:16;30.88;;;15.73;;
32321;SDS011;61553;48.994;8.940;2022-10-31T07:31:41;34.88;;;19.58;;
32321;SDS011;61553;48.994;8.940;2022-10-31T07:34:09;26.70;;;14.15;;
32321;SDS011;61553;48.994;8.940;2022-10-31T07:36:34;18.73;;;12.50;;
32321;SDS011;61553;48.994;8.940;2022-10-31T07:39:00;22.60;;;14.80;;
32321;SDS011;61553;48.994;8.940;2022-10-31T07:41:27;20.10;;;13.48;;
32321;SDS011;61553;48.994;8.940;2022-10-31T07:43:52;26.90;;;16.13;;
32321;SDS011;61553;48.994;8.940;2022-10-31T07:46:18;20.60;;;13.23;;
32321;SDS011;61553;48.994;8.940;2022-10-31T07:48:44;20.90;;;14.10;;
32321;SDS011;61553;48.994;8.940;2022-10-31T07:51:09;21.95;;;14.20;;
32321;SDS011;61553;48.994;8.940;2022-10-31T07:53:35;26.48;;;16.75;;
32321;SDS011;61553;48.994;8.940;2022-10-31T07:56:00;17.42;;;10.70;;
32321;SDS011;61553;48.994;8.940;2022-10-31T07:58:26;18.20;;;11.05;;
32321;SDS011;61553;48.994;8.940;2022-10-31T08:00:52;17.83;;;11.68;;
32321;SDS011;61553;48.994;8.940;2022-10-31T08:03:18;16.95;;;10.95;;
32321;SDS011;61553;48.994;8.940;2022-10-31T08:05:44;14.65;;;8.85;;
32321;SDS011;61553;48.994;8.940;2022-10-31T08:08:11;16.38;;;8.43;;
32321;SDS011;61553;48.994;8.940;2022-10-31T08:10:38;22.90;;;11.90;;
32321;SDS011;61553;48.994;8.940;2022-10-31T08:13:06;16.92;;;10.35;;
32321;SDS011;61553;48.994;8.940;2022-10-31T08:15:33;13.45;;;7.50;;
32321;SDS011;61553;48.994;8.940;2022-10-31T08:18:02;13.00;;;6.88;;
32321;SDS011;61553;48.994;8.940;2022-10-31T08:20:28;14.30;;;7.28;;
32321;SDS011;61553;48.994;8.940;2022-10-31T08:22:58;13.18;;;6.63;;
32321;SDS011;61553;48.994;8.940;2022-10-31T08:25:28;17.23;;;6.65;;
32321;SDS011;61553;48.994;8.940;2022-10-31T08:27:56;10.93;;;5.53;;
32321;SDS011;61553;48.994;8.940;2022-10-31T08:30:22;16.50;;;8.52;;
32321;SDS011;61553;48.994;8.940;2022-10-31T08:33:24;10.75;;;5.85;;
32321;SDS011;61553;48.994;8.940;2022-10-31T08:35:43;12.25;;;7.15;;
32321;SDS011;61553;48.994;8.940;2022-10-31T08:38:09;12.55;;;7.18;;
32321;SDS011;61553;48.994;8.940;2022-10-31T08:40:37;11.82;;;6.80;;
32321;SDS011;61553;48.994;8.940;2022-10-31T08:43:12;15.23;;;6.10;;
32321;SDS011;61553;48.994;8.940;2022-10-31T08:45:40;10.02;;;5.30;;
32321;SDS011;61553;48.994;8.940;2022-10-31T08:48:08;14.13;;;5.55;;
32321;SDS011;61553;48.994;8.940;2022-10-31T08:50:36;10.18;;;5.80;;
32321;SDS011;61553;48.994;8.940;2022-10-31T08:53:02;11.85;;;6.03;;
32321;SDS011;61553;48.994;8.940;2022-10-31T08:55:30;14.93;;;6.50;;
32321;SDS011;61553;48.994;8.940;2022-10-31T08:57:58;12.05;;;5.95;;
32321;SDS011;61553;48.994;8.940;2022-10-31T09:00:24;13.60;;;6.25;;
32321;SDS011;61553;48.994;8.940;2022-10-31T09:02:57;16.67;;;6.43;;
32321;SDS011;61553;48.994;8.940;2022-10-31T09:05:24;13.00;;;6.70;;
32321;SDS011;61553;48.994;8.940;2022-10-31T09:07:50;11.88;;;6.07;;
32321;SDS011;61553;48.994;8.940;2022-10-31T09:10:16;10.75;;;6.25;;
32321;SDS011;61553;48.994;8.940;2022-10-31T09:12:41;14.60;;;5.50;;
32321;SDS011;61553;48.994;8.940;2022-10-31T09:15:07;14.90;;;5.90;;
32321;SDS011;61553;48.994;8.940;2022-10-31T09:17:33;13.43;;;6.80;;
32321;SDS011;61553;48.994;8.940;2022-10-31T09:19:59;12.20;;;6.15;;
32321;SDS011;61553;48.994;8.940;2022-10-31T09:22:24;13.55;;;6.47;;
32321;SDS011;61553;48.994;8.940;2022-10-31T09:24:50;13.60;;;6.05;;
32321;SDS011;61553;48.994;8.940;2022-10-31T09:27:15;17.15;;;6.38;;
32321;SDS011;61553;48.994;8.940;2022-10-31T09:29:41;11.48;;;5.82;;
32321;SDS011;61553;48.994;8.940;2022-10-31T09:32:07;13.75;;;6.15;;
32321;SDS011;61553;48.994;8.940;2022-10-31T09:34:32;9.48;;;5.82;;
32321;SDS011;61553;48.994;8.940;2022-10-31T09:36:58;10.32;;;6.53;;
32321;SDS011;61553;48.994;8.940;2022-10-31T09:39:23;11.35;;;5.30;;
32321;SDS011;61553;48.994;8.940;2022-10-31T09:41:55;10.02;;;5.55;;
32321;SDS011;61553;48.994;8.940;2022-10-31T09:47:10;11.90;;;5.75;;
32321;SDS011;61553;48.994;8.940;2022-10-31T09:52:28;10.23;;;5.68;;
32321;SDS011;61553;48.994;8.940;2022-10-31T09:55:13;9.88;;;5.55;;
32321;SDS011;61553;48.994;8.940;2022-10-31T09:57:43;11.30;;;5.68;;
32321;SDS011;61553;48.994;8.940;2022-10-31T10:00:20;12.73;;;5.63;;
32321;SDS011;61553;48.994;8.940;2022-10-31T10:02:51;10.68;;;5.40;;
32321;SDS011;61553;48.994;8.940;2022-10-31T10:05:32;10.98;;;6.32;;
32321;SDS011;61553;48.994;8.940;2022-10-31T10:08:16;10.73;;;5.80;;
32321;SDS011;61553;48.994;8.940;2022-10-31T10:10:55;11.27;;;5.80;;
32321;SDS011;61553;48.994;8.940;2022-10-31T10:16:31;13.73;;;6.57;;
32321;SDS011;61553;48.994;8.940;2022-10-31T10:19:04;15.20;;;6.70;;
32321;SDS011;61553;48.994;8.940;2022-10-31T10:21:52;11.65;;;5.80;;
32321;SDS011;61553;48.994;8.940;2022-10-31T10:27:01;16.63;;;6.10;;
32321;SDS011;61553;48.994;8.940;2022-10-31T10:32:11;18.08;;;6.20;;
32321;SDS011;61553;48.994;8.940;2022-10-31T10:38:09;12.13;;;6.35;;
32321;SDS011;61553;48.994;8.940;2022-10-31T10:40:38;14.98;;;6.60;;
32321;SDS011;61553;48.994;8.940;2022-10-31T10:46:12;9.85;;;6.70;;
32321;SDS011;61553;48.994;8.940;2022-10-31T10:51:37;15.88;;;6.65;;
32321;SDS011;61553;48.994;8.940;2022-10-31T10:59:47;20.08;;;7.47;;
32321;SDS011;61553;48.994;8.940;2022-10-31T11:02:20;16.80;;;8.10;;
32321;SDS011;61553;48.994;8.940;2022-10-31T11:04:52;14.38;;;6.70;;
32321;SDS011;61553;48.994;8.940;2022-10-31T11:07:20;14.98;;;7.38;;
32321;SDS011;61553;48.994;8.940;2022-10-31T11:09:45;13.30;;;7.20;;
32321;SDS011;61553;48.994;8.940;2022-10-31T11:12:20;11.57;;;6.75;;
32321;SDS011;61553;48.994;8.940;2022-10-31T11:14:54;17.80;;;7.80;;
32321;SDS011;61553;48.994;8.940;2022-10-31T11:22:39;15.70;;;7.75;;
32321;SDS011;61553;48.994;8.940;2022-10-31T11:25:24;14.43;;;7.15;;
32321;SDS011;61553;48.994;8.940;2022-10-31T11:30:27;14.65;;;8.43;;
32321;SDS011;61553;48.994;8.940;2022-10-31T11:32:53;15.93;;;7.75;;
32321;SDS011;61553;48.994;8.940;2022-10-31T11:35:20;16.70;;;8.10;;
32321;SDS011;61553;48.994;8.940;2022-10-31T11:37:49;17.85;;;7.93;;
32321;SDS011;61553;48.994;8.940;2022-10-31T11:40:22;17.73;;;7.38;;
32321;SDS011;61553;48.994;8.940;2022-10-31T11:42:50;13.77;;;8.32;;
32321;SDS011;61553;48.994;8.940;2022-10-31T11:47:49;16.75;;;7.78;;
32321;SDS011;61553;48.994;8.940;2022-10-31T11:50:19;13.65;;;7.85;;
32321;SDS011;61553;48.994;8.940;2022-10-31T11:53:12;14.43;;;7.05;;
32321;SDS011;61553;48.994;8.940;2022-10-31T11:55:42;19.08;;;8.25;;
32321;SDS011;61553;48.994;8.940;2022-10-31T11:58:22;12.40;;;7.50;;
32321;SDS011;61553;48.994;8.940;2022-10-31T12:00:50;13.70;;;7.63;;
32321;SDS011;61553;48.994;8.940;2022-10-31T12:03:38;16.10;;;7.72;;
32321;SDS011;61553;48.994;8.940;2022-10-31T12:09:01;16.85;;;7.55;;
32321;SDS011;61553;48.994;8.940;2022-10-31T12:11:42;20.00;;;7.60;;
32321;SDS011;61553;48.994;8.940;2022-10-31T12:16:53;17.35;;;8.63;;
32321;SDS011;61553;48.994;8.940;2022-10-31T12:19:40;13.57;;;7.78;;
32321;SDS011;61553;48.994;8.940;2022-10-31T12:22:38;15.23;;;8.10;;
32321;SDS011;61553;48.994;8.940;2022-10-31T12:25:27;15.55;;;8.35;;
32321;SDS011;61553;48.994;8.940;2022-10-31T12:30:50;17.40;;;8.73;;
32321;SDS011;61553;48.994;8.940;2022-10-31T12:39:11;16.05;;;8.63;;
32321;SDS011;61553;48.994;8.940;2022-10-31T12:44:35;16.40;;;8.90;;
32321;SDS011;61553;48.994;8.940;2022-10-31T12:47:46;14.48;;;7.88;;
32321;SDS011;61553;48.994;8.940;2022-10-31T12:50:33;18.40;;;9.45;;
32321;SDS011;61553;48.994;8.940;2022-10-31T12:58:35;17.60;;;9.70;;
32321;SDS011;61553;48.994;8.940;2022-10-31T13:01:14;18.23;;;8.98;;
32321;SDS011;61553;48.994;8.940;2022-10-31T13:03:48;21.65;;;9.82;;
32321;SDS011;61553;48.994;8.940;2022-10-31T13:06:38;19.27;;;9.40;;
32321;SDS011;61553;48.994;8.940;2022-10-31T13:09:28;19.17;;;10.27;;
32321;SDS011;61553;48.994;8.940;2022-10-31T13:12:17;18.85;;;9.60;;
32321;SDS011;61553;48.994;8.940;2022-10-31T13:14:52;14.38;;;8.93;;
32321;SDS011;61553;48.994;8.940;2022-10-31T13:17:33;22.90;;;10.82;;
32321;SDS011;61553;48.994;8.940;2022-10-31T13:22:46;16.98;;;9.43;;
32321;SDS011;61553;48.994;8.940;2022-10-31T13:30:53;22.13;;;10.77;;
32321;SDS011;61553;48.994;8.940;2022-10-31T13:33:29;18.05;;;10.82;;
32321;SDS011;61553;48.994;8.940;2022-10-31T13:44:22;21.90;;;10.45;;
32321;SDS011;61553;48.994;8.940;2022-10-31T13:46:50;16.25;;;9.60;;
32321;SDS011;61553;48.994;8.940;2022-10-31T13:57:16;14.18;;;7.57;;
32321;SDS011;61553;48.994;8.940;2022-10-31T13:59:47;14.82;;;7.22;;
32321;SDS011;61553;48.994;8.940;2022-10-31T14:02:19;12.00;;;7.32;;
32321;SDS011;61553;48.994;8.940;2022-10-31T14:04:59;15.80;;;8.63;;
32321;SDS011;61553;48.994;8.940;2022-10-31T14:07:31;23.67;;;11.77;;
32321;SDS011;61553;48.994;8.940;2022-10-31T14:10:02;20.20;;;11.40;;
32321;SDS011;61553;48.994;8.940;2022-10-31T14:12:45;21.98;;;9.98;;
32321;SDS011;61553;48.994;8.940;2022-10-31T14:15:16;15.93;;;9.18;;
32321;SDS011;61553;48.994;8.940;2022-10-31T14:17:47;18.08;;;8.15;;
32321;SDS011;61553;48.994;8.940;2022-10-31T14:22:48;14.57;;;8.70;;
32321;SDS011;61553;48.994;8.940;2022-10-31T14:28:31;26.58;;;9.85;;
32321;SDS011;61553;48.994;8.940;2022-10-31T14:30:59;18.30;;;10.15;;
32321;SDS011;61553;48.994;8.940;2022-10-31T14:33:29;20.48;;;11.02;;
32321;SDS011;61553;48.994;8.940;2022-10-31T14:36:11;21.90;;;12.35;;
32321;SDS011;61553;48.994;8.940;2022-10-31T14:47:09;18.92;;;11.07;;
32321;SDS011;61553;48.994;8.940;2022-10-31T14:53:08;122.85;;;54.30;;
32321;SDS011;61553;48.994;8.940;2022-10-31T14:58:13;137.25;;;70.07;;
32321;SDS011;61553;48.994;8.940;2022-10-31T15:00:43;200.70;;;97.80;;
32321;SDS011;61553;48.994;8.940;2022-10-31T15:05:48;18.38;;;9.60;;
32321;SDS011;61553;48.994;8.940;2022-10-31T15:11:08;16.60;;;9.95;;
32321;SDS011;61553;48.994;8.940;2022-10-31T15:13:55;15.27;;;9.55;;
32321;SDS011;61553;48.994;8.940;2022-10-31T15:16:33;20.33;;;9.15;;
32321;SDS011;61553;48.994;8.940;2022-10-31T15:19:06;21.15;;;11.68;;
32321;SDS011;61553;48.994;8.940;2022-10-31T15:21:34;21.33;;;11.15;;
32321;SDS011;61553;48.994;8.940;2022-10-31T15:24:05;24.40;;;11.07;;
32321;SDS011;61553;48.994;8.940;2022-10-31T15:26:38;30.20;;;17.13;;
32321;SDS011;61553;48.994;8.940;2022-10-31T15:29:25;24.63;;;13.38;;
32321;SDS011;61553;48.994;8.940;2022-10-31T15:31:56;23.85;;;12.18;;
32321;SDS011;61553;48.994;8.940;2022-10-31T15:34:38;19.40;;;11.13;;
32321;SDS011;61553;48.994;8.940;2022-10-31T15:37:09;28.60;;;17.55;;
32321;SDS011;61553;48.994;8.940;2022-10-31T15:39:36;25.40;;;11.90;;
32321;SDS011;61553;48.994;8.940;2022-10-31T15:42:02;17.63;;;10.90;;
32321;SDS011;61553;48.994;8.940;2022-10-31T15:44:29;18.25;;;10.93;;
32321;SDS011;61553;48.994;8.940;2022-10-31T15:47:05;17.75;;;9.90;;
32321;SDS011;61553;48.994;8.940;2022-10-31T15:49:38;42.40;;;20.27;;
32321;SDS011;61553;48.994;8.940;2022-10-31T15:52:23;66.25;;;31.30;;
32321;SDS011;61553;48.994;8.940;2022-10-31T15:54:58;33.03;;;15.63;;
32321;SDS011;61553;48.994;8.940;2022-10-31T15:57:28;20.85;;;11.73;;
32321;SDS011;61553;48.994;8.940;2022-10-31T15:59:55;21.92;;;11.20;;
32321;SDS011;61553;48.994;8.940;2022-10-31T16:02:22;22.35;;;9.30;;
32321;SDS011;61553;48.994;8.940;2022-10-31T16:07:23;13.82;;;9.00;;
32321;SDS011;61553;48.994;8.940;2022-10-31T16:14:52;17.27;;;9.30;;
32321;SDS011;61553;48.994;8.940;2022-10-31T16:17:20;20.63;;;10.73;;
32321;SDS011;61553;48.994;8.940;2022-10-31T16:19:49;36.83;;;22.17;;
32321;SDS011;61553;48.994;8.940;2022-10-31T16:22:34;20.52;;;10.40;;
32321;SDS011;61553;48.994;8.940;2022-10-31T16:27:39;16.77;;;9.02;;
32321;SDS011;61553;48.994;8.940;2022-10-31T16:32:57;27.88;;;13.02;;
32321;SDS011;61553;48.994;8.940;2022-10-31T16:37:52;17.33;;;8.65;;
32321;SDS011;61553;48.994;8.940;2022-10-31T16:40:19;19.98;;;10.52;;
32321;SDS011;61553;48.994;8.940;2022-10-31T16:42:45;21.08;;;8.93;;
32321;SDS011;61553;48.994;8.940;2022-10-31T16:45:17;16.17;;;9.63;;
32321;SDS011;61553;48.994;8.940;2022-10-31T16:47:45;22.17;;;11.53;;
32321;SDS011;61553;48.994;8.940;2022-10-31T16:50:12;20.92;;;11.02;;
32321;SDS011;61553;48.994;8.940;2022-10-31T16:52:46;21.67;;;11.35;;
32321;SDS011;61553;48.994;8.940;2022-10-31T16:55:13;21.73;;;12.30;;
32321;SDS011;61553;48.994;8.940;2022-10-31T16:57:40;22.58;;;13.75;;
32321;SDS011;61553;48.994;8.940;2022-10-31T17:00:17;23.60;;;14.02;;
32321;SDS011;61553;48.994;8.940;2022-10-31T17:02:47;24.48;;;15.45;;
32321;SDS011;61553;48.994;8.940;2022-10-31T17:05:16;19.85;;;14.32;;
32321;SDS011;61553;48.994;8.940;2022-10-31T17:07:43;28.63;;;16.35;;
32321;SDS011;61553;48.994;8.940;2022-10-31T17:10:10;22.77;;;14.15;;
32321;SDS011;61553;48.994;8.940;2022-10-31T17:12:36;20.85;;;13.55;;
32321;SDS011;61553;48.994;8.940;2022-10-31T17:15:04;20.77;;;13.60;;
32321;SDS011;61553;48.994;8.940;2022-10-31T17:17:31;18.48;;;11.82;;
32321;SDS011;61553;48.994;8.940;2022-10-31T17:19:57;29.42;;;17.70;;
32321;SDS011;61553;48.994;8.940;2022-10-31T17:22:22;32.35;;;18.63;;
32321;SDS011;61553;48.994;8.940;2022-10-31T17:24:48;29.73;;;18.80;;
32321;SDS011;61553;48.994;8.940;2022-10-31T17:27:14;25.63;;;15.85;;